sensor_id;sensor_type;location;lat;lon;timestamp;pressure;altitude;pressure_sealevel;temperature;humidity
38780;BME280;29273;49.962;9.768;2023-05-02T00:00:33;99815.00;;;13.86;48.52
38780;BME280;29273;49.962;9.768;2023-05-02T00:02:59;99813.34;;;13.85;47.93
38780;BME280;29273;49.962;9.768;2023-05-02T00:05:25;99806.50;;;13.77;48.48
38780;BME280;29273;49.962;9.768;2023-05-02T00:07:51;99805.88;;;13.75;48.65
38780;BME280;29273;49.962;9.768;2023-05-02T00:10:17;99809.81;;;13.73;48.75
38780;BME280;29273;49.962;9.768;2023-05-02T00:12:42;99801.00;;;13.72;48.76
38780;BME280;29273;49.962;9.768;2023-05-02T00:15:08;99796.94;;;13.69;48.56
38780;BME280;29273;49.962;9.768;2023-05-02T00:17:35;99797.97;;;13.68;48.58
38780;BME280;29273;49.962;9.768;2023-05-02T00:20:01;99802.50;;;13.68;48.60
38780;BME280;29273;49.962;9.768;2023-05-02T00:22:28;99802.72;;;13.66;48.80
38780;BME280;29273;49.962;9.768;2023-05-02T00:24:55;99805.38;;;13.66;48.41
38780;BME280;29273;49.962;9.768;2023-05-02T00:27:22;99806.66;;;13.64;48.87
38780;BME280;29273;49.962;9.768;2023-05-02T00:29:48;99805.00;;;13.63;48.89
38780;BME280;29273;49.962;9.768;2023-05-02T00:32:13;99807.88;;;13.61;48.74
38780;BME280;29273;49.962;9.768;2023-05-02T00:34:39;99810.78;;;13.60;48.67
38780;BME280;29273;49.962;9.768;2023-05-02T00:37:05;99809.97;;;13.59;48.69
38780;BME280;29273;49.962;9.768;2023-05-02T00:39:33;99808.09;;;13.60;48.16
38780;BME280;29273;49.962;9.768;2023-05-02T00:41:59;99813.88;;;13.57;48.74
38780;BME280;29273;49.962;9.768;2023-05-02T00:44:25;99810.63;;;13.55;48.80
38780;BME280;29273;49.962;9.768;2023-05-02T00:46:51;99817.81;;;13.54;49.26
38780;BME280;29273;49.962;9.768;2023-05-02T00:49:18;99822.06;;;13.55;49.15
38780;BME280;29273;49.962;9.768;2023-05-02T00:51:44;99811.41;;;13.55;49.34
38780;BME280;29273;49.962;9.768;2023-05-02T00:54:11;99808.53;;;13.57;49.11
38780;BME280;29273;49.962;9.768;2023-05-02T00:56:37;99806.69;;;13.57;49.17
38780;BME280;29273;49.962;9.768;2023-05-02T00:59:03;99811.00;;;13.58;48.92
38780;BME280;29273;49.962;9.768;2023-05-02T01:04:22;99815.94;;;13.55;49.12
38780;BME280;29273;49.962;9.768;2023-05-02T01:09:51;99809.34;;;13.57;47.56
38780;BME280;29273;49.962;9.768;2023-05-02T01:12:30;99816.31;;;13.58;48.06
38780;BME280;29273;49.962;9.768;2023-05-02T01:14:58;99829.03;;;13.56;48.49
38780;BME280;29273;49.962;9.768;2023-05-02T01:17:29;99823.72;;;13.56;48.26
38780;BME280;29273;49.962;9.768;2023-05-02T01:20:04;99826.59;;;13.55;48.14
38780;BME280;29273;49.962;9.768;2023-05-02T01:22:31;99826.22;;;13.51;49.17
38780;BME280;29273;49.962;9.768;2023-05-02T01:25:13;99830.25;;;13.54;47.96
38780;BME280;29273;49.962;9.768;2023-05-02T01:28:08;99835.59;;;13.54;48.15
38780;BME280;29273;49.962;9.768;2023-05-02T01:30:37;99838.47;;;13.52;49.27
38780;BME280;29273;49.962;9.768;2023-05-02T01:33:10;99836.63;;;13.53;49.62
38780;BME280;29273;49.962;9.768;2023-05-02T01:35:36;99837.06;;;13.49;50.08
38780;BME280;29273;49.962;9.768;2023-05-02T01:38:05;99836.63;;;13.53;49.38
38780;BME280;29273;49.962;9.768;2023-05-02T01:40:32;99840.53;;;13.50;49.60
38780;BME280;29273;49.962;9.768;2023-05-02T01:42:58;99842.41;;;13.49;49.83
38780;BME280;29273;49.962;9.768;2023-05-02T01:45:26;99846.44;;;13.52;49.55
38780;BME280;29273;49.962;9.768;2023-05-02T01:47:53;99845.06;;;13.49;50.13
38780;BME280;29273;49.962;9.768;2023-05-02T01:50:22;99854.44;;;13.52;49.78
38780;BME280;29273;49.962;9.768;2023-05-02T01:52:50;99849.94;;;13.53;49.86
38780;BME280;29273;49.962;9.768;2023-05-02T01:55:17;99846.06;;;13.48;50.56
38780;BME280;29273;49.962;9.768;2023-05-02T01:57:45;99852.81;;;13.51;49.52
38780;BME280;29273;49.962;9.768;2023-05-02T02:00:13;99848.53;;;13.50;50.04
38780;BME280;29273;49.962;9.768;2023-05-02T02:02:41;99858.16;;;13.51;50.06
38780;BME280;29273;49.962;9.768;2023-05-02T02:05:09;99862.41;;;13.52;49.72
38780;BME280;29273;49.962;9.768;2023-05-02T02:07:35;99856.50;;;13.50;50.37
38780;BME280;29273;49.962;9.768;2023-05-02T02:10:01;99856.72;;;13.48;50.32
38780;BME280;29273;49.962;9.768;2023-05-02T02:12:30;99852.22;;;13.49;50.42
38780;BME280;29273;49.962;9.768;2023-05-02T02:15:01;99861.16;;;13.55;49.44
38780;BME280;29273;49.962;9.768;2023-05-02T02:17:39;99863.84;;;13.55;48.86
38780;BME280;29273;49.962;9.768;2023-05-02T02:20:09;99878.78;;;13.56;49.78
38780;BME280;29273;49.962;9.768;2023-05-02T02:22:39;99875.88;;;13.57;49.54
38780;BME280;29273;49.962;9.768;2023-05-02T02:25:11;99882.47;;;13.55;49.84
38780;BME280;29273;49.962;9.768;2023-05-02T02:27:37;99882.09;;;13.51;50.63
38780;BME280;29273;49.962;9.768;2023-05-02T02:30:03;99882.91;;;13.51;50.57
38780;BME280;29273;49.962;9.768;2023-05-02T02:32:29;99888.44;;;13.50;50.86
38780;BME280;29273;49.962;9.768;2023-05-02T02:34:55;99886.56;;;13.50;50.96
38780;BME280;29273;49.962;9.768;2023-05-02T02:37:31;99894.97;;;13.54;49.54
38780;BME280;29273;49.962;9.768;2023-05-02T02:40:04;99896.78;;;13.54;49.95
38780;BME280;29273;49.962;9.768;2023-05-02T02:42:40;99897.63;;;13.54;49.69
38780;BME280;29273;49.962;9.768;2023-05-02T02:48:00;99906.47;;;13.48;51.36
38780;BME280;29273;49.962;9.768;2023-05-02T02:50:47;99903.97;;;13.53;49.73
38780;BME280;29273;49.962;9.768;2023-05-02T02:53:25;99903.38;;;13.51;49.94
38780;BME280;29273;49.962;9.768;2023-05-02T02:55:56;99912.38;;;13.50;50.23
38780;BME280;29273;49.962;9.768;2023-05-02T02:58:46;99914.00;;;13.51;49.63
38780;BME280;29273;49.962;9.768;2023-05-02T03:01:20;99909.56;;;13.45;50.51
38780;BME280;29273;49.962;9.768;2023-05-02T03:03:47;99912.66;;;13.42;50.99
38780;BME280;29273;49.962;9.768;2023-05-02T03:06:13;99920.25;;;13.38;51.37
38780;BME280;29273;49.962;9.768;2023-05-02T03:08:39;99925.56;;;13.38;51.42
38780;BME280;29273;49.962;9.768;2023-05-02T03:11:06;99925.78;;;13.37;51.46
38780;BME280;29273;49.962;9.768;2023-05-02T03:13:32;99928.44;;;13.37;51.41
38780;BME280;29273;49.962;9.768;2023-05-02T03:16:18;99923.50;;;13.40;49.95
38780;BME280;29273;49.962;9.768;2023-05-02T03:18:49;99929.72;;;13.34;51.46
38780;BME280;29273;49.962;9.768;2023-05-02T03:21:15;99930.72;;;13.33;51.69
38780;BME280;29273;49.962;9.768;2023-05-02T03:23:40;99929.94;;;13.32;51.62
38780;BME280;29273;49.962;9.768;2023-05-02T03:26:06;99929.09;;;13.32;51.78
38780;BME280;29273;49.962;9.768;2023-05-02T03:28:33;99928.06;;;13.33;51.69
38780;BME280;29273;49.962;9.768;2023-05-02T03:30:59;99935.84;;;13.35;51.76
38780;BME280;29273;49.962;9.768;2023-05-02T03:33:25;99932.16;;;13.36;51.86
38780;BME280;29273;49.962;9.768;2023-05-02T03:35:50;99932.16;;;13.36;51.74
38780;BME280;29273;49.962;9.768;2023-05-02T03:38:16;99931.91;;;13.37;51.79
38780;BME280;29273;49.962;9.768;2023-05-02T03:40:44;99937.22;;;13.37;51.94
38780;BME280;29273;49.962;9.768;2023-05-02T03:43:10;99936.00;;;13.40;51.88
38780;BME280;29273;49.962;9.768;2023-05-02T03:45:36;99939.47;;;13.40;51.84
38780;BME280;29273;49.962;9.768;2023-05-02T03:48:01;99941.09;;;13.41;51.76
38780;BME280;29273;49.962;9.768;2023-05-02T03:50:28;99941.91;;;13.42;52.20
38780;BME280;29273;49.962;9.768;2023-05-02T03:52:54;99947.22;;;13.42;51.63
38780;BME280;29273;49.962;9.768;2023-05-02T03:55:28;99949.09;;;13.41;51.62
38780;BME280;29273;49.962;9.768;2023-05-02T03:57:55;99952.56;;;13.42;51.81
38780;BME280;29273;49.962;9.768;2023-05-02T04:00:21;99953.59;;;13.41;51.74
38780;BME280;29273;49.962;9.768;2023-05-02T04:02:54;99960.75;;;13.40;51.79
38780;BME280;29273;49.962;9.768;2023-05-02T04:05:23;99966.06;;;13.40;51.61
38780;BME280;29273;49.962;9.768;2023-05-02T04:07:49;99970.59;;;13.40;51.57
38780;BME280;29273;49.962;9.768;2023-05-02T04:10:15;99964.66;;;13.38;51.86
38780;BME280;29273;49.962;9.768;2023-05-02T04:12:47;99968.56;;;13.35;51.60
38780;BME280;29273;49.962;9.768;2023-05-02T04:15:14;99972.06;;;13.36;51.79
38780;BME280;29273;49.962;9.768;2023-05-02T04:17:41;99980.25;;;13.34;51.69
38780;BME280;29273;49.962;9.768;2023-05-02T04:20:09;99981.88;;;13.35;51.35
38780;BME280;29273;49.962;9.768;2023-05-02T04:22:38;99980.66;;;13.31;51.68
38780;BME280;29273;49.962;9.768;2023-05-02T04:25:05;99990.25;;;13.32;51.95
38780;BME280;29273;49.962;9.768;2023-05-02T04:27:33;99991.28;;;13.31;52.06
38780;BME280;29273;49.962;9.768;2023-05-02T04:29:59;99992.31;;;13.30;52.05
38780;BME280;29273;49.962;9.768;2023-05-02T04:32:25;100001.91;;;13.31;52.03
38780;BME280;29273;49.962;9.768;2023-05-02T04:34:52;100001.31;;;13.29;51.98
38780;BME280;29273;49.962;9.768;2023-05-02T04:37:21;100009.06;;;13.30;52.04
38780;BME280;29273;49.962;9.768;2023-05-02T04:39:46;100010.31;;;13.28;52.52
38780;BME280;29273;49.962;9.768;2023-05-02T04:42:22;100015.44;;;13.29;52.69
38780;BME280;29273;49.962;9.768;2023-05-02T04:44:57;100028.72;;;13.29;52.83
38780;BME280;29273;49.962;9.768;2023-05-02T04:47:23;100030.59;;;13.29;52.86
38780;BME280;29273;49.962;9.768;2023-05-02T04:49:48;100032.19;;;13.30;52.80
38780;BME280;29273;49.962;9.768;2023-05-02T04:52:14;100030.34;;;13.30;52.78
38780;BME280;29273;49.962;9.768;2023-05-02T04:54:39;100038.97;;;13.32;52.75
38780;BME280;29273;49.962;9.768;2023-05-02T04:57:05;100040.38;;;13.35;52.62
38780;BME280;29273;49.962;9.768;2023-05-02T04:59:35;100045.28;;;13.38;52.82
38780;BME280;29273;49.962;9.768;2023-05-02T05:02:01;100047.13;;;13.38;53.04
38780;BME280;29273;49.962;9.768;2023-05-02T05:04:27;100052.25;;;13.39;53.09
38780;BME280;29273;49.962;9.768;2023-05-02T05:06:52;100050.19;;;13.41;52.80
38780;BME280;29273;49.962;9.768;2023-05-02T05:09:19;100058.97;;;13.42;52.90
38780;BME280;29273;49.962;9.768;2023-05-02T05:11:45;100064.66;;;13.45;53.14
38780;BME280;29273;49.962;9.768;2023-05-02T05:14:12;100069.56;;;13.48;52.97
38780;BME280;29273;49.962;9.768;2023-05-02T05:16:40;100060.56;;;13.49;53.13
38780;BME280;29273;49.962;9.768;2023-05-02T05:19:06;100070.16;;;13.50;52.84
38780;BME280;29273;49.962;9.768;2023-05-02T05:21:31;100068.13;;;13.53;53.24
38780;BME280;29273;49.962;9.768;2023-05-02T05:23:59;100075.88;;;13.54;53.21
38780;BME280;29273;49.962;9.768;2023-05-02T05:26:27;100069.31;;;13.57;53.11
38780;BME280;29273;49.962;9.768;2023-05-02T05:28:53;100082.41;;;13.58;53.17
38780;BME280;29273;49.962;9.768;2023-05-02T05:31:21;100081.16;;;13.61;53.29
38780;BME280;29273;49.962;9.768;2023-05-02T05:33:51;100086.28;;;13.62;53.20
38780;BME280;29273;49.962;9.768;2023-05-02T05:36:18;100088.47;;;13.65;53.14
38780;BME280;29273;49.962;9.768;2023-05-02T05:38:44;100090.72;;;13.68;53.27
38780;BME280;29273;49.962;9.768;2023-05-02T05:41:10;100094.00;;;13.71;53.33
38780;BME280;29273;49.962;9.768;2023-05-02T05:43:39;100094.59;;;13.73;53.24
38780;BME280;29273;49.962;9.768;2023-05-02T05:46:05;100099.50;;;13.76;53.32
38780;BME280;29273;49.962;9.768;2023-05-02T05:48:32;100099.88;;;13.79;53.32
38780;BME280;29273;49.962;9.768;2023-05-02T05:51:03;100101.44;;;13.87;52.57
38780;BME280;29273;49.962;9.768;2023-05-02T05:53:29;100115.81;;;13.86;53.63
38780;BME280;29273;49.962;9.768;2023-05-02T05:55:55;100116.41;;;13.88;53.57
38780;BME280;29273;49.962;9.768;2023-05-02T05:58:22;100114.13;;;13.92;53.55
38780;BME280;29273;49.962;9.768;2023-05-02T06:00:49;100121.88;;;13.93;53.46
38780;BME280;29273;49.962;9.768;2023-05-02T06:03:15;100127.59;;;13.97;53.30
38780;BME280;29273;49.962;9.768;2023-05-02T06:05:41;100130.03;;;13.98;53.44
38780;BME280;29273;49.962;9.768;2023-05-02T06:08:07;100131.25;;;14.02;53.42
38780;BME280;29273;49.962;9.768;2023-05-02T06:10:32;100128.97;;;14.06;53.52
38780;BME280;29273;49.962;9.768;2023-05-02T06:12:58;100131.22;;;14.09;53.63
38780;BME280;29273;49.962;9.768;2023-05-02T06:15:28;100140.16;;;14.15;53.70
38780;BME280;29273;49.962;9.768;2023-05-02T06:17:54;100141.59;;;14.17;53.64
38780;BME280;29273;49.962;9.768;2023-05-02T06:20:19;100142.56;;;14.23;53.74
38780;BME280;29273;49.962;9.768;2023-05-02T06:22:45;100147.47;;;14.26;53.70
38780;BME280;29273;49.962;9.768;2023-05-02T06:25:11;100154.19;;;14.29;54.00
38780;BME280;29273;49.962;9.768;2023-05-02T06:27:37;100154.59;;;14.32;54.11
38780;BME280;29273;49.962;9.768;2023-05-02T06:30:03;100154.97;;;14.36;54.26
38780;BME280;29273;49.962;9.768;2023-05-02T06:32:30;100164.72;;;14.42;54.37
38780;BME280;29273;49.962;9.768;2023-05-02T06:34:56;100159.34;;;14.49;55.12
38780;BME280;29273;49.962;9.768;2023-05-02T06:37:21;100163.22;;;14.53;54.06
38780;BME280;29273;49.962;9.768;2023-05-02T06:39:47;100165.63;;;14.61;54.52
38780;BME280;29273;49.962;9.768;2023-05-02T06:42:12;100164.78;;;14.67;54.02
38780;BME280;29273;49.962;9.768;2023-05-02T06:44:37;100173.50;;;14.74;53.74
38780;BME280;29273;49.962;9.768;2023-05-02T06:47:03;100171.81;;;14.80;53.24
38780;BME280;29273;49.962;9.768;2023-05-02T06:49:30;100165.59;;;14.86;52.90
38780;BME280;29273;49.962;9.768;2023-05-02T06:51:55;100165.16;;;14.89;52.60
38780;BME280;29273;49.962;9.768;2023-05-02T06:54:21;100172.50;;;14.94;52.97
38780;BME280;29273;49.962;9.768;2023-05-02T06:56:46;100177.38;;;14.97;52.83
38780;BME280;29273;49.962;9.768;2023-05-02T06:59:12;100180.44;;;15.01;52.97
38780;BME280;29273;49.962;9.768;2023-05-02T07:01:37;100174.41;;;15.05;53.08
38780;BME280;29273;49.962;9.768;2023-05-02T07:04:02;100178.28;;;15.09;53.10
38780;BME280;29273;49.962;9.768;2023-05-02T07:06:30;100186.78;;;15.18;53.00
38780;BME280;29273;49.962;9.768;2023-05-02T07:08:56;100186.13;;;15.23;52.91
38780;BME280;29273;49.962;9.768;2023-05-02T07:11:21;100189.97;;;15.27;53.00
38780;BME280;29273;49.962;9.768;2023-05-02T07:13:48;100189.09;;;15.33;52.48
38780;BME280;29273;49.962;9.768;2023-05-02T07:16:14;100196.44;;;15.38;52.88
38780;BME280;29273;49.962;9.768;2023-05-02T07:18:39;100191.66;;;15.40;52.56
38780;BME280;29273;49.962;9.768;2023-05-02T07:21:06;100189.16;;;15.45;52.13
38780;BME280;29273;49.962;9.768;2023-05-02T07:23:33;100191.59;;;15.46;52.12
38780;BME280;29273;49.962;9.768;2023-05-02T07:25:58;100202.63;;;15.50;51.91
38780;BME280;29273;49.962;9.768;2023-05-02T07:28:24;100200.53;;;15.52;51.59
38780;BME280;29273;49.962;9.768;2023-05-02T07:30:49;100198.72;;;15.52;51.89
38780;BME280;29273;49.962;9.768;2023-05-02T07:33:15;100192.69;;;15.57;51.77
38780;BME280;29273;49.962;9.768;2023-05-02T07:35:41;100185.88;;;15.61;51.67
38780;BME280;29273;49.962;9.768;2023-05-02T07:38:06;100199.78;;;15.63;51.35
38780;BME280;29273;49.962;9.768;2023-05-02T07:40:32;100195.88;;;15.66;51.56
38780;BME280;29273;49.962;9.768;2023-05-02T07:42:59;100194.16;;;15.71;51.38
38780;BME280;29273;49.962;9.768;2023-05-02T07:45:25;100194.16;;;15.71;52.13
38780;BME280;29273;49.962;9.768;2023-05-02T07:47:51;100197.38;;;15.73;51.89
38780;BME280;29273;49.962;9.768;2023-05-02T07:50:16;100200.25;;;15.79;51.99
38780;BME280;29273;49.962;9.768;2023-05-02T07:52:42;100196.09;;;15.83;51.50
38780;BME280;29273;49.962;9.768;2023-05-02T07:55:08;100202.34;;;15.88;51.34
38780;BME280;29273;49.962;9.768;2023-05-02T07:57:33;100196.34;;;15.93;51.91
38780;BME280;29273;49.962;9.768;2023-05-02T07:59:59;100201.00;;;15.98;51.44
38780;BME280;29273;49.962;9.768;2023-05-02T08:02:24;100193.13;;;16.03;51.62
38780;BME280;29273;49.962;9.768;2023-05-02T08:04:50;100198.59;;;16.08;51.58
38780;BME280;29273;49.962;9.768;2023-05-02T08:07:16;100208.59;;;16.13;51.54
38780;BME280;29273;49.962;9.768;2023-05-02T08:09:41;100216.97;;;16.16;50.72
38780;BME280;29273;49.962;9.768;2023-05-02T08:12:07;100212.78;;;16.20;50.58
38780;BME280;29273;49.962;9.768;2023-05-02T08:14:32;100208.84;;;16.23;51.05
38780;BME280;29273;49.962;9.768;2023-05-02T08:16:59;100213.28;;;16.29;50.69
38780;BME280;29273;49.962;9.768;2023-05-02T08:19:24;100214.44;;;16.33;50.66
38780;BME280;29273;49.962;9.768;2023-05-02T08:21:52;100213.88;;;16.43;50.25
38780;BME280;29273;49.962;9.768;2023-05-02T08:24:18;100215.06;;;16.47;49.77
38780;BME280;29273;49.962;9.768;2023-05-02T08:26:43;100218.69;;;16.53;49.50
38780;BME280;29273;49.962;9.768;2023-05-02T08:29:09;100219.38;;;16.60;48.67
38780;BME280;29273;49.962;9.768;2023-05-02T08:31:36;100218.22;;;16.68;48.21
38780;BME280;29273;49.962;9.768;2023-05-02T08:34:02;100216.25;;;16.75;48.33
38780;BME280;29273;49.962;9.768;2023-05-02T08:36:27;100218.81;;;16.81;47.89
38780;BME280;29273;49.962;9.768;2023-05-02T08:38:54;100225.94;;;16.88;48.92
38780;BME280;29273;49.962;9.768;2023-05-02T08:41:19;100216.38;;;16.92;48.38
38780;BME280;29273;49.962;9.768;2023-05-02T08:43:46;100223.00;;;17.01;48.98
38780;BME280;29273;49.962;9.768;2023-05-02T08:46:13;100217.06;;;17.11;48.72
38780;BME280;29273;49.962;9.768;2023-05-02T08:48:40;100226.34;;;17.20;49.21
38780;BME280;29273;49.962;9.768;2023-05-02T08:51:15;100244.28;;;17.31;48.55
38780;BME280;29273;49.962;9.768;2023-05-02T08:53:41;100234.72;;;17.35;48.07
38780;BME280;29273;49.962;9.768;2023-05-02T08:56:08;100241.56;;;17.43;47.03
38780;BME280;29273;49.962;9.768;2023-05-02T08:58:36;100238.75;;;17.50;46.93
38780;BME280;29273;49.962;9.768;2023-05-02T09:01:07;100239.47;;;17.57;47.65
38780;BME280;29273;49.962;9.768;2023-05-02T09:03:34;100245.16;;;17.61;47.33
38780;BME280;29273;49.962;9.768;2023-05-02T09:06:19;100239.19;;;17.70;47.05
38780;BME280;29273;49.962;9.768;2023-05-02T09:08:47;100246.97;;;17.72;45.99
38780;BME280;29273;49.962;9.768;2023-05-02T09:11:14;100247.09;;;17.77;46.34
38780;BME280;29273;49.962;9.768;2023-05-02T09:13:42;100239.72;;;17.84;45.52
38780;BME280;29273;49.962;9.768;2023-05-02T09:16:13;100237.16;;;17.89;45.70
38780;BME280;29273;49.962;9.768;2023-05-02T09:18:41;100246.59;;;17.92;45.58
38780;BME280;29273;49.962;9.768;2023-05-02T09:21:33;100251.69;;;17.93;46.05
38780;BME280;29273;49.962;9.768;2023-05-02T09:23:59;100264.97;;;17.88;45.05
38780;BME280;29273;49.962;9.768;2023-05-02T09:26:27;100269.88;;;17.91;45.34
38780;BME280;29273;49.962;9.768;2023-05-02T09:29:02;100271.41;;;17.87;45.31
38780;BME280;29273;49.962;9.768;2023-05-02T09:31:30;100276.97;;;17.86;44.96
38780;BME280;29273;49.962;9.768;2023-05-02T09:34:12;100273.72;;;17.84;45.58
38780;BME280;29273;49.962;9.768;2023-05-02T09:36:39;100277.34;;;17.78;45.01
38780;BME280;29273;49.962;9.768;2023-05-02T09:39:13;100274.44;;;17.79;45.74
38780;BME280;29273;49.962;9.768;2023-05-02T09:41:40;100283.88;;;17.70;45.00
38780;BME280;29273;49.962;9.768;2023-05-02T09:44:14;100279.69;;;17.74;45.77
38780;BME280;29273;49.962;9.768;2023-05-02T09:46:41;100286.78;;;17.68;46.45
38780;BME280;29273;49.962;9.768;2023-05-02T09:49:07;100284.34;;;17.67;44.96
38780;BME280;29273;49.962;9.768;2023-05-02T09:51:34;100287.88;;;17.67;45.37
38780;BME280;29273;49.962;9.768;2023-05-02T09:54:00;100289.47;;;17.68;44.76
38780;BME280;29273;49.962;9.768;2023-05-02T09:56:25;100283.06;;;17.69;44.65
38780;BME280;29273;49.962;9.768;2023-05-02T09:58:51;100285.53;;;17.71;44.84
38780;BME280;29273;49.962;9.768;2023-05-02T10:01:18;100289.34;;;17.75;44.05
38780;BME280;29273;49.962;9.768;2023-05-02T10:03:46;100294.78;;;17.80;44.72
38780;BME280;29273;49.962;9.768;2023-05-02T10:06:12;100292.13;;;17.80;44.16
38780;BME280;29273;49.962;9.768;2023-05-02T10:08:40;100287.69;;;17.86;44.53
38780;BME280;29273;49.962;9.768;2023-05-02T10:11:07;100294.69;;;17.87;44.22
38780;BME280;29273;49.962;9.768;2023-05-02T10:13:33;100287.25;;;17.89;44.46
38780;BME280;29273;49.962;9.768;2023-05-02T10:16:05;100291.16;;;17.98;45.21
38780;BME280;29273;49.962;9.768;2023-05-02T10:18:41;100281.38;;;18.04;45.02
38780;BME280;29273;49.962;9.768;2023-05-02T10:21:12;100280.31;;;18.05;44.61
38780;BME280;29273;49.962;9.768;2023-05-02T10:23:41;100281.78;;;18.12;44.78
38780;BME280;29273;49.962;9.768;2023-05-02T10:26:13;100278.25;;;18.24;45.15
38780;BME280;29273;49.962;9.768;2023-05-02T10:28:40;100274.81;;;18.28;44.19
38780;BME280;29273;49.962;9.768;2023-05-02T10:31:08;100275.75;;;18.34;43.93
38780;BME280;29273;49.962;9.768;2023-05-02T10:33:34;100288.19;;;18.40;44.03
38780;BME280;29273;49.962;9.768;2023-05-02T10:36:00;100279.66;;;18.43;43.31
38780;BME280;29273;49.962;9.768;2023-05-02T10:38:26;100281.03;;;18.46;44.04
38780;BME280;29273;49.962;9.768;2023-05-02T10:40:58;100278.78;;;18.55;44.65
38780;BME280;29273;49.962;9.768;2023-05-02T10:43:31;100289.00;;;18.58;44.86
38780;BME280;29273;49.962;9.768;2023-05-02T10:45:57;100279.59;;;18.55;42.85
38780;BME280;29273;49.962;9.768;2023-05-02T10:48:24;100279.44;;;18.62;43.46
38780;BME280;29273;49.962;9.768;2023-05-02T10:50:57;100278.28;;;18.75;44.11
38780;BME280;29273;49.962;9.768;2023-05-02T10:56:11;100277.19;;;18.88;44.00
38780;BME280;29273;49.962;9.768;2023-05-02T10:58:38;100279.63;;;18.89;43.30
38780;BME280;29273;49.962;9.768;2023-05-02T11:04:05;100281.16;;;19.02;44.84
38780;BME280;29273;49.962;9.768;2023-05-02T11:06:34;100279.22;;;18.97;43.65
38780;BME280;29273;49.962;9.768;2023-05-02T11:11:39;100286.03;;;18.88;44.17
38780;BME280;29273;49.962;9.768;2023-05-02T11:14:07;100280.09;;;18.86;43.21
38780;BME280;29273;49.962;9.768;2023-05-02T11:19:24;100281.81;;;18.75;42.96
38780;BME280;29273;49.962;9.768;2023-05-02T11:21:50;100281.81;;;18.75;42.23
38780;BME280;29273;49.962;9.768;2023-05-02T11:24:40;100279.19;;;18.80;43.29
38780;BME280;29273;49.962;9.768;2023-05-02T11:30:08;100281.50;;;18.89;43.07
38780;BME280;29273;49.962;9.768;2023-05-02T11:35:17;100272.88;;;19.03;42.59
38780;BME280;29273;49.962;9.768;2023-05-02T11:37:42;100269.66;;;19.07;41.51
38780;BME280;29273;49.962;9.768;2023-05-02T11:40:12;100272.59;;;19.22;43.37
38780;BME280;29273;49.962;9.768;2023-05-02T11:42:37;100272.66;;;19.27;42.35
38780;BME280;29273;49.962;9.768;2023-05-02T11:45:03;100278.16;;;19.37;41.80
38780;BME280;29273;49.962;9.768;2023-05-02T11:47:31;100273.22;;;19.51;43.03
38780;BME280;29273;49.962;9.768;2023-05-02T11:49:57;100267.03;;;19.51;40.64
38780;BME280;29273;49.962;9.768;2023-05-02T11:52:25;100273.53;;;19.55;41.07
38780;BME280;29273;49.962;9.768;2023-05-02T11:54:54;100265.28;;;19.62;41.52
38780;BME280;29273;49.962;9.768;2023-05-02T11:57:22;100269.78;;;19.56;41.13
38780;BME280;29273;49.962;9.768;2023-05-02T11:59:56;100266.66;;;19.64;42.25
38780;BME280;29273;49.962;9.768;2023-05-02T12:02:38;100270.16;;;19.65;42.86
38780;BME280;29273;49.962;9.768;2023-05-02T12:05:06;100266.91;;;19.63;41.44
38780;BME280;29273;49.962;9.768;2023-05-02T12:07:45;100268.13;;;19.72;42.22
38780;BME280;29273;49.962;9.768;2023-05-02T12:10:12;100259.47;;;19.70;38.96
38780;BME280;29273;49.962;9.768;2023-05-02T12:12:39;100263.06;;;19.75;38.93
38780;BME280;29273;49.962;9.768;2023-05-02T12:15:09;100260.75;;;19.84;41.03
38780;BME280;29273;49.962;9.768;2023-05-02T12:17:37;100271.19;;;19.81;39.10
38780;BME280;29273;49.962;9.768;2023-05-02T12:20:04;100269.63;;;19.85;38.97
38780;BME280;29273;49.962;9.768;2023-05-02T12:22:30;100267.75;;;19.85;39.49
38780;BME280;29273;49.962;9.768;2023-05-02T12:24:56;100268.00;;;19.84;39.16
38780;BME280;29273;49.962;9.768;2023-05-02T12:27:21;100261.81;;;19.83;38.77
38780;BME280;29273;49.962;9.768;2023-05-02T12:29:47;100269.06;;;19.83;39.36
38780;BME280;29273;49.962;9.768;2023-05-02T12:32:14;100273.94;;;19.86;39.29
38780;BME280;29273;49.962;9.768;2023-05-02T12:34:41;100266.19;;;19.89;38.40
38780;BME280;29273;49.962;9.768;2023-05-02T12:37:07;100272.41;;;19.95;38.40
38780;BME280;29273;49.962;9.768;2023-05-02T12:39:40;100278.22;;;20.09;40.11
38780;BME280;29273;49.962;9.768;2023-05-02T12:42:13;100273.91;;;20.08;38.26
38780;BME280;29273;49.962;9.768;2023-05-02T12:44:40;100272.09;;;20.13;38.23
38780;BME280;29273;49.962;9.768;2023-05-02T12:47:10;100272.63;;;20.15;36.29
38780;BME280;29273;49.962;9.768;2023-05-02T12:52:14;100286.63;;;20.18;35.45
38780;BME280;29273;49.962;9.768;2023-05-02T12:54:39;100270.25;;;20.19;36.03
38780;BME280;29273;49.962;9.768;2023-05-02T12:57:05;100276.72;;;20.23;36.46
38780;BME280;29273;49.962;9.768;2023-05-02T12:59:31;100275.16;;;20.27;36.27
38780;BME280;29273;49.962;9.768;2023-05-02T13:01:58;100265.25;;;20.33;35.75
38780;BME280;29273;49.962;9.768;2023-05-02T13:04:37;100269.66;;;20.44;37.80
38780;BME280;29273;49.962;9.768;2023-05-02T13:07:04;100274.25;;;20.44;35.86
38780;BME280;29273;49.962;9.768;2023-05-02T13:09:29;100269.16;;;20.47;34.91
38780;BME280;29273;49.962;9.768;2023-05-02T13:11:55;100260.59;;;20.50;35.02
38780;BME280;29273;49.962;9.768;2023-05-02T13:14:21;100267.31;;;20.53;35.60
38780;BME280;29273;49.962;9.768;2023-05-02T13:16:48;100264.41;;;20.60;36.72
38780;BME280;29273;49.962;9.768;2023-05-02T13:19:13;100263.94;;;20.63;35.80
38780;BME280;29273;49.962;9.768;2023-05-02T13:21:39;100266.94;;;20.72;36.07
38780;BME280;29273;49.962;9.768;2023-05-02T13:24:05;100275.63;;;20.79;35.65